sensor_id;sensor_type;location;lat;lon;timestamp;temperature;humidity
18240;DHT22;9244;50.828;4.718;2024-02-04T00:00:52;10.00;99.90
18240;DHT22;9244;50.828;4.718;2024-02-04T00:03:18;10.00;99.90
18240;DHT22;9244;50.828;4.718;2024-02-04T00:05:44;10.00;99.90
18240;DHT22;9244;50.828;4.718;2024-02-04T00:08:10;10.00;99.90
18240;DHT22;9244;50.828;4.718;2024-02-04T00:10:38;10.00;99.90
18240;DHT22;9244;50.828;4.718;2024-02-04T00:13:03;10.00;99.90
18240;DHT22;9244;50.828;4.718;2024-02-04T00:15:29;10.00;99.90
18240;DHT22;9244;50.828;4.718;2024-02-04T00:17:55;10.00;99.90
18240;DHT22;9244;50.828;4.718;2024-02-04T00:20:21;10.00;99.90
18240;DHT22;9244;50.828;4.718;2024-02-04T00:22:47;10.00;99.90
18240;DHT22;9244;50.828;4.718;2024-02-04T00:25:12;10.00;99.90
18240;DHT22;9244;50.828;4.718;2024-02-04T00:27:40;10.00;99.90
18240;DHT22;9244;50.828;4.718;2024-02-04T00:30:10;10.00;99.90
18240;DHT22;9244;50.828;4.718;2024-02-04T00:32:36;10.00;99.90
18240;DHT22;9244;50.828;4.718;2024-02-04T00:35:01;10.00;99.90
18240;DHT22;9244;50.828;4.718;2024-02-04T00:37:30;10.00;99.90
18240;DHT22;9244;50.828;4.718;2024-02-04T00:39:56;10.10;99.90
18240;DHT22;9244;50.828;4.718;2024-02-04T00:42:26;10.00;99.90
18240;DHT22;9244;50.828;4.718;2024-02-04T00:44:52;10.10;99.90
18240;DHT22;9244;50.828;4.718;2024-02-04T00:47:18;10.10;99.90
18240;DHT22;9244;50.828;4.718;2024-02-04T00:49:45;10.10;99.90
18240;DHT22;9244;50.828;4.718;2024-02-04T00:52:11;10.10;99.90
18240;DHT22;9244;50.828;4.718;2024-02-04T00:54:37;10.10;99.90
18240;DHT22;9244;50.828;4.718;2024-02-04T00:57:04;10.10;99.90
18240;DHT22;9244;50.828;4.718;2024-02-04T00:59:33;10.10;99.90
18240;DHT22;9244;50.828;4.718;2024-02-04T01:01:58;10.10;99.90
18240;DHT22;9244;50.828;4.718;2024-02-04T01:04:24;10.10;99.90
18240;DHT22;9244;50.828;4.718;2024-02-04T01:06:50;10.10;99.90
18240;DHT22;9244;50.828;4.718;2024-02-04T01:09:16;10.10;99.90
18240;DHT22;9244;50.828;4.718;2024-02-04T01:11:44;10.10;99.90
18240;DHT22;9244;50.828;4.718;2024-02-04T01:14:09;10.10;99.90
18240;DHT22;9244;50.828;4.718;2024-02-04T01:16:35;10.10;99.90
18240;DHT22;9244;50.828;4.718;2024-02-04T01:19:03;10.10;99.90
18240;DHT22;9244;50.828;4.718;2024-02-04T01:21:29;10.10;99.90
18240;DHT22;9244;50.828;4.718;2024-02-04T01:23:57;10.10;99.90
18240;DHT22;9244;50.828;4.718;2024-02-04T01:26:22;10.10;99.90
18240;DHT22;9244;50.828;4.718;2024-02-04T01:28:49;10.10;99.90
18240;DHT22;9244;50.828;4.718;2024-02-04T01:31:15;10.10;99.90
18240;DHT22;9244;50.828;4.718;2024-02-04T01:33:41;10.20;99.90
18240;DHT22;9244;50.828;4.718;2024-02-04T01:36:06;10.20;99.90
18240;DHT22;9244;50.828;4.718;2024-02-04T01:38:32;10.20;99.90
18240;DHT22;9244;50.828;4.718;2024-02-04T01:41:02;10.20;99.90
18240;DHT22;9244;50.828;4.718;2024-02-04T01:43:31;10.20;99.90
18240;DHT22;9244;50.828;4.718;2024-02-04T01:45:57;10.20;99.90
18240;DHT22;9244;50.828;4.718;2024-02-04T01:48:23;10.20;99.90
18240;DHT22;9244;50.828;4.718;2024-02-04T01:50:53;10.20;99.90
18240;DHT22;9244;50.828;4.718;2024-02-04T01:53:23;10.20;99.90
18240;DHT22;9244;50.828;4.718;2024-02-04T01:55:52;10.20;99.90
18240;DHT22;9244;50.828;4.718;2024-02-04T01:58:18;10.20;99.90
18240;DHT22;9244;50.828;4.718;2024-02-04T02:00:45;10.20;99.90
18240;DHT22;9244;50.828;4.718;2024-02-04T02:03:14;10.20;99.90
18240;DHT22;9244;50.828;4.718;2024-02-04T02:05:44;10.20;99.90
18240;DHT22;9244;50.828;4.718;2024-02-04T02:08:10;10.20;99.90
18240;DHT22;9244;50.828;4.718;2024-02-04T02:10:37;10.20;99.90
18240;DHT22;9244;50.828;4.718;2024-02-04T02:13:16;10.20;99.90
18240;DHT22;9244;50.828;4.718;2024-02-04T02:15:51;10.20;99.90
18240;DHT22;9244;50.828;4.718;2024-02-04T02:18:36;10.20;99.90
18240;DHT22;9244;50.828;4.718;2024-02-04T02:24:16;10.20;99.90
18240;DHT22;9244;50.828;4.718;2024-02-04T02:26:46;10.20;99.90
18240;DHT22;9244;50.828;4.718;2024-02-04T02:29:12;10.20;99.90
18240;DHT22;9244;50.828;4.718;2024-02-04T02:31:39;10.20;99.90
18240;DHT22;9244;50.828;4.718;2024-02-04T02:34:06;10.20;99.90
18240;DHT22;9244;50.828;4.718;2024-02-04T02:36:50;10.20;99.90
18240;DHT22;9244;50.828;4.718;2024-02-04T02:39:23;10.20;99.90
18240;DHT22;9244;50.828;4.718;2024-02-04T02:41:55;10.20;99.90
18240;DHT22;9244;50.828;4.718;2024-02-04T02:44:22;10.20;99.90
18240;DHT22;9244;50.828;4.718;2024-02-04T02:46:53;10.20;99.90
18240;DHT22;9244;50.828;4.718;2024-02-04T02:49:19;10.30;99.90
18240;DHT22;9244;50.828;4.718;2024-02-04T02:51:45;10.30;99.90
18240;DHT22;9244;50.828;4.718;2024-02-04T02:54:11;10.30;99.90
18240;DHT22;9244;50.828;4.718;2024-02-04T02:56:42;10.30;99.90
18240;DHT22;9244;50.828;4.718;2024-02-04T02:59:13;10.30;99.90
18240;DHT22;9244;50.828;4.718;2024-02-04T03:01:39;10.30;99.90
18240;DHT22;9244;50.828;4.718;2024-02-04T03:04:06;10.30;99.90
18240;DHT22;9244;50.828;4.718;2024-02-04T03:06:31;10.30;99.90
18240;DHT22;9244;50.828;4.718;2024-02-04T03:08:57;10.30;99.90
18240;DHT22;9244;50.828;4.718;2024-02-04T03:11:23;10.30;99.90
18240;DHT22;9244;50.828;4.718;2024-02-04T03:13:48;10.30;99.90
18240;DHT22;9244;50.828;4.718;2024-02-04T03:16:14;10.30;99.90
18240;DHT22;9244;50.828;4.718;2024-02-04T03:18:40;10.40;99.90
18240;DHT22;9244;50.828;4.718;2024-02-04T03:21:16;10.30;99.90
18240;DHT22;9244;50.828;4.718;2024-02-04T03:23:42;10.30;99.90
18240;DHT22;9244;50.828;4.718;2024-02-04T03:26:09;10.40;99.90
18240;DHT22;9244;50.828;4.718;2024-02-04T03:28:35;10.30;99.90
18240;DHT22;9244;50.828;4.718;2024-02-04T03:31:00;10.40;99.90
18240;DHT22;9244;50.828;4.718;2024-02-04T03:33:26;10.30;99.90
18240;DHT22;9244;50.828;4.718;2024-02-04T03:35:52;10.40;99.90
18240;DHT22;9244;50.828;4.718;2024-02-04T03:38:17;10.40;99.90
18240;DHT22;9244;50.828;4.718;2024-02-04T03:40:44;10.40;99.90
18240;DHT22;9244;50.828;4.718;2024-02-04T03:43:10;10.40;99.90
18240;DHT22;9244;50.828;4.718;2024-02-04T03:45:38;10.40;99.90
18240;DHT22;9244;50.828;4.718;2024-02-04T03:48:07;10.30;99.90
18240;DHT22;9244;50.828;4.718;2024-02-04T03:50:32;10.40;99.90
18240;DHT22;9244;50.828;4.718;2024-02-04T03:52:58;10.40;99.90
18240;DHT22;9244;50.828;4.718;2024-02-04T03:55:26;10.30;99.90
18240;DHT22;9244;50.828;4.718;2024-02-04T03:57:54;10.40;99.90
18240;DHT22;9244;50.828;4.718;2024-02-04T04:00:19;10.30;99.90
18240;DHT22;9244;50.828;4.718;2024-02-04T04:02:48;10.40;99.90
18240;DHT22;9244;50.828;4.718;2024-02-04T04:05:13;10.40;99.90
18240;DHT22;9244;50.828;4.718;2024-02-04T04:07:39;10.40;99.90
18240;DHT22;9244;50.828;4.718;2024-02-04T04:10:06;10.40;99.90
18240;DHT22;9244;50.828;4.718;2024-02-04T04:12:34;10.40;99.90
18240;DHT22;9244;50.828;4.718;2024-02-04T04:14:59;10.40;99.90
18240;DHT22;9244;50.828;4.718;2024-02-04T04:17:27;10.40;99.90
18240;DHT22;9244;50.828;4.718;2024-02-04T04:19:53;10.40;99.90
18240;DHT22;9244;50.828;4.718;2024-02-04T04:22:18;10.40;99.90
18240;DHT22;9244;50.828;4.718;2024-02-04T04:24:44;10.40;99.90
18240;DHT22;9244;50.828;4.718;2024-02-04T04:27:10;10.30;99.90
18240;DHT22;9244;50.828;4.718;2024-02-04T04:29:35;10.30;99.90
18240;DHT22;9244;50.828;4.718;2024-02-04T04:32:03;10.30;99.90
18240;DHT22;9244;50.828;4.718;2024-02-04T04:34:29;10.30;99.90
18240;DHT22;9244;50.828;4.718;2024-02-04T04:36:55;10.30;99.90
18240;DHT22;9244;50.828;4.718;2024-02-04T04:39:20;10.30;99.90
18240;DHT22;9244;50.828;4.718;2024-02-04T04:41:46;10.30;99.90
18240;DHT22;9244;50.828;4.718;2024-02-04T04:44:14;10.30;99.90
18240;DHT22;9244;50.828;4.718;2024-02-04T04:46:43;10.30;99.90
18240;DHT22;9244;50.828;4.718;2024-02-04T04:49:09;10.30;99.90
18240;DHT22;9244;50.828;4.718;2024-02-04T04:51:35;10.30;99.90
18240;DHT22;9244;50.828;4.718;2024-02-04T04:54:01;10.30;99.90
18240;DHT22;9244;50.828;4.718;2024-02-04T04:56:26;10.30;99.90
18240;DHT22;9244;50.828;4.718;2024-02-04T04:58:52;10.30;99.90
18240;DHT22;9244;50.828;4.718;2024-02-04T05:01:20;10.30;99.90
18240;DHT22;9244;50.828;4.718;2024-02-04T05:03:45;10.30;99.90
18240;DHT22;9244;50.828;4.718;2024-02-04T05:06:13;10.30;99.90
18240;DHT22;9244;50.828;4.718;2024-02-04T05:08:39;10.30;99.90
18240;DHT22;9244;50.828;4.718;2024-02-04T05:11:07;10.30;99.90
18240;DHT22;9244;50.828;4.718;2024-02-04T05:13:33;10.30;99.90
18240;DHT22;9244;50.828;4.718;2024-02-04T05:15:58;10.30;99.90
18240;DHT22;9244;50.828;4.718;2024-02-04T05:18:24;10.30;99.90
18240;DHT22;9244;50.828;4.718;2024-02-04T05:20:52;10.30;99.90
18240;DHT22;9244;50.828;4.718;2024-02-04T05:23:17;10.30;99.90
18240;DHT22;9244;50.828;4.718;2024-02-04T05:25:43;10.30;99.90
18240;DHT22;9244;50.828;4.718;2024-02-04T05:28:11;10.30;99.90
18240;DHT22;9244;50.828;4.718;2024-02-04T05:30:37;10.30;99.90
18240;DHT22;9244;50.828;4.718;2024-02-04T05:33:02;10.30;99.90
18240;DHT22;9244;50.828;4.718;2024-02-04T05:35:28;10.20;99.90
18240;DHT22;9244;50.828;4.718;2024-02-04T05:37:54;10.20;99.90
18240;DHT22;9244;50.828;4.718;2024-02-04T05:40:19;10.30;99.90
18240;DHT22;9244;50.828;4.718;2024-02-04T05:42:47;10.30;99.90
18240;DHT22;9244;50.828;4.718;2024-02-04T05:45:13;10.30;99.90
18240;DHT22;9244;50.828;4.718;2024-02-04T05:47:41;10.30;99.90
18240;DHT22;9244;50.828;4.718;2024-02-04T05:50:07;10.30;99.90
18240;DHT22;9244;50.828;4.718;2024-02-04T05:52:32;10.30;99.90
18240;DHT22;9244;50.828;4.718;2024-02-04T05:54:58;10.30;99.90
18240;DHT22;9244;50.828;4.718;2024-02-04T05:57:24;10.30;99.90
18240;DHT22;9244;50.828;4.718;2024-02-04T05:59:50;10.30;99.90
18240;DHT22;9244;50.828;4.718;2024-02-04T06:02:18;10.30;99.90
18240;DHT22;9244;50.828;4.718;2024-02-04T06:04:44;10.30;99.90
18240;DHT22;9244;50.828;4.718;2024-02-04T06:07:13;10.30;99.90
18240;DHT22;9244;50.828;4.718;2024-02-04T06:09:41;10.30;99.90
18240;DHT22;9244;50.828;4.718;2024-02-04T06:12:07;10.30;99.90
18240;DHT22;9244;50.828;4.718;2024-02-04T06:14:33;10.30;99.90
18240;DHT22;9244;50.828;4.718;2024-02-04T06:17:00;10.30;99.90
18240;DHT22;9244;50.828;4.718;2024-02-04T06:19:25;10.30;99.90
18240;DHT22;9244;50.828;4.718;2024-02-04T06:21:51;10.30;99.90
18240;DHT22;9244;50.828;4.718;2024-02-04T06:24:19;10.40;99.90
18240;DHT22;9244;50.828;4.718;2024-02-04T06:26:48;10.40;99.90
18240;DHT22;9244;50.828;4.718;2024-02-04T06:29:13;10.40;99.90
18240;DHT22;9244;50.828;4.718;2024-02-04T06:31:39;10.30;99.90
18240;DHT22;9244;50.828;4.718;2024-02-04T06:34:09;10.30;99.90
18240;DHT22;9244;50.828;4.718;2024-02-04T06:36:34;10.40;99.90
18240;DHT22;9244;50.828;4.718;2024-02-04T06:39:00;10.30;99.90
18240;DHT22;9244;50.828;4.718;2024-02-04T06:41:26;10.30;99.90
18240;DHT22;9244;50.828;4.718;2024-02-04T06:43:53;10.30;99.90
18240;DHT22;9244;50.828;4.718;2024-02-04T06:46:26;10.30;99.90
18240;DHT22;9244;50.828;4.718;2024-02-04T06:48:52;10.30;99.90
18240;DHT22;9244;50.828;4.718;2024-02-04T06:51:19;10.30;99.90
18240;DHT22;9244;50.828;4.718;2024-02-04T06:53:45;10.30;99.90
18240;DHT22;9244;50.828;4.718;2024-02-04T06:56:11;10.30;99.90
18240;DHT22;9244;50.828;4.718;2024-02-04T06:58:41;10.30;99.90
18240;DHT22;9244;50.828;4.718;2024-02-04T07:01:07;10.30;99.90
18240;DHT22;9244;50.828;4.718;2024-02-04T07:03:32;10.30;99.90
18240;DHT22;9244;50.828;4.718;2024-02-04T07:05:59;10.30;99.90
18240;DHT22;9244;50.828;4.718;2024-02-04T07:08:25;10.30;99.90
18240;DHT22;9244;50.828;4.718;2024-02-04T07:10:51;10.30;99.90
18240;DHT22;9244;50.828;4.718;2024-02-04T07:13:17;10.30;99.90
18240;DHT22;9244;50.828;4.718;2024-02-04T07:15:42;10.30;99.90
18240;DHT22;9244;50.828;4.718;2024-02-04T07:18:08;10.30;99.90
18240;DHT22;9244;50.828;4.718;2024-02-04T07:20:34;10.30;99.90
18240;DHT22;9244;50.828;4.718;2024-02-04T07:22:59;10.30;99.90
18240;DHT22;9244;50.828;4.718;2024-02-04T07:25:25;10.30;99.90
18240;DHT22;9244;50.828;4.718;2024-02-04T07:27:53;10.40;99.90
18240;DHT22;9244;50.828;4.718;2024-02-04T07:30:19;10.30;99.90
18240;DHT22;9244;50.828;4.718;2024-02-04T07:32:46;10.30;99.90
18240;DHT22;9244;50.828;4.718;2024-02-04T07:35:12;10.30;99.90
18240;DHT22;9244;50.828;4.718;2024-02-04T07:37:40;10.30;99.90
18240;DHT22;9244;50.828;4.718;2024-02-04T07:40:09;10.30;99.90
18240;DHT22;9244;50.828;4.718;2024-02-04T07:42:34;10.40;99.90
18240;DHT22;9244;50.828;4.718;2024-02-04T07:45:00;10.40;99.90
18240;DHT22;9244;50.828;4.718;2024-02-04T07:47:27;10.40;99.90
18240;DHT22;9244;50.828;4.718;2024-02-04T07:49:55;10.40;99.90
18240;DHT22;9244;50.828;4.718;2024-02-04T07:52:21;10.40;99.90
18240;DHT22;9244;50.828;4.718;2024-02-04T07:54:48;10.40;99.90
18240;DHT22;9244;50.828;4.718;2024-02-04T07:57:14;10.40;99.90
18240;DHT22;9244;50.828;4.718;2024-02-04T07:59:40;10.40;99.90
18240;DHT22;9244;50.828;4.718;2024-02-04T08:02:05;10.40;99.90
18240;DHT22;9244;50.828;4.718;2024-02-04T08:04:32;10.50;99.90
18240;DHT22;9244;50.828;4.718;2024-02-04T08:06:57;10.50;99.90
18240;DHT22;9244;50.828;4.718;2024-02-04T08:09:23;10.50;99.90
18240;DHT22;9244;50.828;4.718;2024-02-04T08:11:49;10.50;99.90
18240;DHT22;9244;50.828;4.718;2024-02-04T08:14:14;10.50;99.90
18240;DHT22;9244;50.828;4.718;2024-02-04T08:16:40;10.50;99.90
18240;DHT22;9244;50.828;4.718;2024-02-04T08:19:08;10.50;99.90
18240;DHT22;9244;50.828;4.718;2024-02-04T08:21:34;10.50;99.90
18240;DHT22;9244;50.828;4.718;2024-02-04T08:24:02;10.50;99.90
18240;DHT22;9244;50.828;4.718;2024-02-04T08:26:28;10.50;99.90
18240;DHT22;9244;50.828;4.718;2024-02-04T08:28:53;10.50;99.90
18240;DHT22;9244;50.828;4.718;2024-02-04T08:31:19;10.50;99.90
18240;DHT22;9244;50.828;4.718;2024-02-04T08:33:45;10.50;99.90
18240;DHT22;9244;50.828;4.718;2024-02-04T08:36:10;10.50;99.90
18240;DHT22;9244;50.828;4.718;2024-02-04T08:38:36;10.50;99.90
18240;DHT22;9244;50.828;4.718;2024-02-04T08:41:03;10.50;99.90
18240;DHT22;9244;50.828;4.718;2024-02-04T08:43:29;10.60;99.90
18240;DHT22;9244;50.828;4.718;2024-02-04T08:45:54;10.60;99.90
18240;DHT22;9244;50.828;4.718;2024-02-04T08:48:20;10.60;99.90
18240;DHT22;9244;50.828;4.718;2024-02-04T08:50:46;10.60;99.90
18240;DHT22;9244;50.828;4.718;2024-02-04T08:53:12;10.60;99.90
18240;DHT22;9244;50.828;4.718;2024-02-04T08:55:37;10.60;99.90
18240;DHT22;9244;50.828;4.718;2024-02-04T08:58:03;10.60;99.90
18240;DHT22;9244;50.828;4.718;2024-02-04T09:00:29;10.70;99.90
18240;DHT22;9244;50.828;4.718;2024-02-04T09:02:55;10.70;99.90
18240;DHT22;9244;50.828;4.718;2024-02-04T09:05:21;10.70;99.90
18240;DHT22;9244;50.828;4.718;2024-02-04T09:07:47;10.70;99.90
18240;DHT22;9244;50.828;4.718;2024-02-04T09:10:12;10.80;99.90
18240;DHT22;9244;50.828;4.718;2024-02-04T09:12:38;10.80;99.90
18240;DHT22;9244;50.828;4.718;2024-02-04T09:15:05;10.90;99.90
18240;DHT22;9244;50.828;4.718;2024-02-04T09:17:31;10.90;99.90
18240;DHT22;9244;50.828;4.718;2024-02-04T09:19:59;11.00;99.90
18240;DHT22;9244;50.828;4.718;2024-02-04T09:22:25;11.00;99.90
18240;DHT22;9244;50.828;4.718;2024-02-04T09:24:51;11.00;99.90
18240;DHT22;9244;50.828;4.718;2024-02-04T09:27:19;11.00;99.90
18240;DHT22;9244;50.828;4.718;2024-02-04T09:29:46;11.00;99.90
18240;DHT22;9244;50.828;4.718;2024-02-04T09:32:12;11.00;99.90
18240;DHT22;9244;50.828;4.718;2024-02-04T09:34:38;10.90;99.90
18240;DHT22;9244;50.828;4.718;2024-02-04T09:37:04;11.00;99.90
18240;DHT22;9244;50.828;4.718;2024-02-04T09:39:30;10.90;99.90
18240;DHT22;9244;50.828;4.718;2024-02-04T09:41:58;11.00;99.90
18240;DHT22;9244;50.828;4.718;2024-02-04T09:44:25;11.00;99.90
18240;DHT22;9244;50.828;4.718;2024-02-04T09:46:51;11.00;99.90
18240;DHT22;9244;50.828;4.718;2024-02-04T09:49:17;10.90;99.90
18240;DHT22;9244;50.828;4.718;2024-02-04T09:51:44;10.90;99.90
18240;DHT22;9244;50.828;4.718;2024-02-04T09:54:14;10.90;99.90
18240;DHT22;9244;50.828;4.718;2024-02-04T09:56:41;10.90;99.90
18240;DHT22;9244;50.828;4.718;2024-02-04T09:59:07;10.90;99.90
18240;DHT22;9244;50.828;4.718;2024-02-04T10:01:33;10.90;99.90
18240;DHT22;9244;50.828;4.718;2024-02-04T10:04:01;10.90;99.90
18240;DHT22;9244;50.828;4.718;2024-02-04T10:06:29;10.90;99.90
18240;DHT22;9244;50.828;4.718;2024-02-04T10:08:55;10.90;99.90
18240;DHT22;9244;50.828;4.718;2024-02-04T10:11:20;10.90;99.90
18240;DHT22;9244;50.828;4.718;2024-02-04T10:13:48;10.80;99.90
18240;DHT22;9244;50.828;4.718;2024-02-04T10:16:15;10.90;99.90
18240;DHT22;9244;50.828;4.718;2024-02-04T10:18:45;10.90;99.90
18240;DHT22;9244;50.828;4.718;2024-02-04T10:21:20;10.90;99.90
18240;DHT22;9244;50.828;4.718;2024-02-04T10:23:46;10.90;99.90
18240;DHT22;9244;50.828;4.718;2024-02-04T10:26:12;10.90;99.90
18240;DHT22;9244;50.828;4.718;2024-02-04T10:28:38;10.90;99.90
18240;DHT22;9244;50.828;4.718;2024-02-04T10:31:04;10.90;99.90
18240;DHT22;9244;50.828;4.718;2024-02-04T10:33:31;10.90;99.90
18240;DHT22;9244;50.828;4.718;2024-02-04T10:35:57;10.80;99.90
18240;DHT22;9244;50.828;4.718;2024-02-04T10:38:25;10.80;99.90
18240;DHT22;9244;50.828;4.718;2024-02-04T10:40:55;10.90;99.90
18240;DHT22;9244;50.828;4.718;2024-02-04T10:43:31;11.00;99.90
18240;DHT22;9244;50.828;4.718;2024-02-04T10:46:03;11.00;99.90
18240;DHT22;9244;50.828;4.718;2024-02-04T10:48:36;11.20;99.90
18240;DHT22;9244;50.828;4.718;2024-02-04T10:51:13;11.10;99.90
18240;DHT22;9244;50.828;4.718;2024-02-04T10:53:43;11.10;99.90
18240;DHT22;9244;50.828;4.718;2024-02-04T10:56:18;11.20;99.90
18240;DHT22;9244;50.828;4.718;2024-02-04T10:58:47;11.20;99.90
18240;DHT22;9244;50.828;4.718;2024-02-04T11:01:16;11.30;99.90
18240;DHT22;9244;50.828;4.718;2024-02-04T11:03:45;11.30;99.90
18240;DHT22;9244;50.828;4.718;2024-02-04T11:06:12;11.30;99.90
18240;DHT22;9244;50.828;4.718;2024-02-04T11:08:39;11.40;99.90
18240;DHT22;9244;50.828;4.718;2024-02-04T11:11:07;11.40;99.90
18240;DHT22;9244;50.828;4.718;2024-02-04T11:13:33;11.40;99.90
18240;DHT22;9244;50.828;4.718;2024-02-04T11:16:02;11.40;99.90
18240;DHT22;9244;50.828;4.718;2024-02-04T11:21:35;11.50;99.90
18240;DHT22;9244;50.828;4.718;2024-02-04T11:26:40;11.40;99.90
18240;DHT22;9244;50.828;4.718;2024-02-04T11:29:07;11.50;99.90
18240;DHT22;9244;50.828;4.718;2024-02-04T11:31:32;11.50;99.90
18240;DHT22;9244;50.828;4.718;2024-02-04T11:33:58;11.50;99.90
18240;DHT22;9244;50.828;4.718;2024-02-04T11:36:27;11.40;99.90
18240;DHT22;9244;50.828;4.718;2024-02-04T11:38:52;11.40;99.90
18240;DHT22;9244;50.828;4.718;2024-02-04T11:41:22;11.30;99.90
18240;DHT22;9244;50.828;4.718;2024-02-04T11:43:55;11.30;99.90
18240;DHT22;9244;50.828;4.718;2024-02-04T11:46:21;11.30;99.90
18240;DHT22;9244;50.828;4.718;2024-02-04T11:48:54;11.30;99.90
18240;DHT22;9244;50.828;4.718;2024-02-04T11:51:23;11.30;99.90
18240;DHT22;9244;50.828;4.718;2024-02-04T11:53:50;11.20;99.90
18240;DHT22;9244;50.828;4.718;2024-02-04T11:56:21;11.20;99.90
18240;DHT22;9244;50.828;4.718;2024-02-04T11:58:49;11.20;99.90
18240;DHT22;9244;50.828;4.718;2024-02-04T12:01:17;11.20;99.90
18240;DHT22;9244;50.828;4.718;2024-02-04T12:03:43;11.20;99.90
18240;DHT22;9244;50.828;4.718;2024-02-04T12:06:08;11.20;99.90
18240;DHT22;9244;50.828;4.718;2024-02-04T12:08:36;11.20;99.90
18240;DHT22;9244;50.828;4.718;2024-02-04T12:11:05;11.10;99.90
18240;DHT22;9244;50.828;4.718;2024-02-04T12:13:32;11.10;99.90
18240;DHT22;9244;50.828;4.718;2024-02-04T12:15:59;11.10;99.90
18240;DHT22;9244;50.828;4.718;2024-02-04T12:18:27;11.10;99.90
18240;DHT22;9244;50.828;4.718;2024-02-04T12:20:53;11.10;99.90
18240;DHT22;9244;50.828;4.718;2024-02-04T12:23:19;11.10;99.90
18240;DHT22;9244;50.828;4.718;2024-02-04T12:25:45;11.10;99.90
18240;DHT22;9244;50.828;4.718;2024-02-04T12:28:14;11.20;99.90
18240;DHT22;9244;50.828;4.718;2024-02-04T12:30:39;11.10;99.90
18240;DHT22;9244;50.828;4.718;2024-02-04T12:33:06;11.20;99.90
18240;DHT22;9244;50.828;4.718;2024-02-04T12:35:32;11.20;99.90
18240;DHT22;9244;50.828;4.718;2024-02-04T12:38:00;11.20;99.90
18240;DHT22;9244;50.828;4.718;2024-02-04T12:40:30;11.20;99.90
18240;DHT22;9244;50.828;4.718;2024-02-04T12:42:58;11.20;99.90
18240;DHT22;9244;50.828;4.718;2024-02-04T12:45:24;11.20;99.90
18240;DHT22;9244;50.828;4.718;2024-02-04T12:47:54;11.10;99.90
18240;DHT22;9244;50.828;4.718;2024-02-04T12:50:20;11.10;99.90
18240;DHT22;9244;50.828;4.718;2024-02-04T12:53:02;11.10;99.90
18240;DHT22;9244;50.828;4.718;2024-02-04T12:55:29;11.10;99.90
18240;DHT22;9244;50.828;4.718;2024-02-04T12:58:13;11.10;99.90
18240;DHT22;9244;50.828;4.718;2024-02-04T13:00:42;11.10;99.90
18240;DHT22;9244;50.828;4.718;2024-02-04T13:03:08;11.00;99.90
18240;DHT22;9244;50.828;4.718;2024-02-04T13:05:35;11.00;99.90
18240;DHT22;9244;50.828;4.718;2024-02-04T13:08:02;11.00;99.90
18240;DHT22;9244;50.828;4.718;2024-02-04T13:10:34;11.10;99.90
18240;DHT22;9244;50.828;4.718;2024-02-04T13:13:11;11.10;99.90
18240;DHT22;9244;50.828;4.718;2024-02-04T13:15:45;11.20;99.90
18240;DHT22;9244;50.828;4.718;2024-02-04T13:18:15;11.10;99.90
18240;DHT22;9244;50.828;4.718;2024-02-04T13:20:41;11.20;99.90
18240;DHT22;9244;50.828;4.718;2024-02-04T13:23:13;11.10;99.90
18240;DHT22;9244;50.828;4.718;2024-02-04T13:25:39;11.10;99.90
18240;DHT22;9244;50.828;4.718;2024-02-04T13:28:04;11.20;99.90
18240;DHT22;9244;50.828;4.718;2024-02-04T13:30:30;11.20;99.90
18240;DHT22;9244;50.828;4.718;2024-02-04T13:32:56;11.20;99.90
18240;DHT22;9244;50.828;4.718;2024-02-04T13:35:23;11.20;99.90
18240;DHT22;9244;50.828;4.718;2024-02-04T13:37:52;11.20;99.90
18240;DHT22;9244;50.828;4.718;2024-02-04T13:40:21;11.20;99.90
18240;DHT22;9244;50.828;4.718;2024-02-04T13:42:49;11.20;99.90
18240;DHT22;9244;50.828;4.718;2024-02-04T13:45:15;11.20;99.90
18240;DHT22;9244;50.828;4.718;2024-02-04T13:47:43;11.10;99.90
18240;DHT22;9244;50.828;4.718;2024-02-04T13:50:12;11.20;99.90
18240;DHT22;9244;50.828;4.718;2024-02-04T13:52:38;11.20;99.90
18240;DHT22;9244;50.828;4.718;2024-02-04T13:55:04;11.20;99.90
18240;DHT22;9244;50.828;4.718;2024-02-04T13:57:33;11.20;99.90
18240;DHT22;9244;50.828;4.718;2024-02-04T13:59:59;11.20;99.90
18240;DHT22;9244;50.828;4.718;2024-02-04T14:02:25;11.20;99.90
18240;DHT22;9244;50.828;4.718;2024-02-04T14:04:55;11.10;99.90
18240;DHT22;9244;50.828;4.718;2024-02-04T14:07:25;11.10;99.90
18240;DHT22;9244;50.828;4.718;2024-02-04T14:09:56;11.10;99.90
18240;DHT22;9244;50.828;4.718;2024-02-04T14:12:21;11.00;99.90
18240;DHT22;9244;50.828;4.718;2024-02-04T14:14:49;11.00;99.90
18240;DHT22;9244;50.828;4.718;2024-02-04T14:17:15;11.00;99.90
18240;DHT22;9244;50.828;4.718;2024-02-04T14:19:40;11.00;99.90
18240;DHT22;9244;50.828;4.718;2024-02-04T14:22:06;11.00;99.90
18240;DHT22;9244;50.828;4.718;2024-02-04T14:24:32;11.00;99.90
18240;DHT22;9244;50.828;4.718;2024-02-04T14:26:58;10.90;99.90
18240;DHT22;9244;50.828;4.718;2024-02-04T14:29:25;10.90;99.90
18240;DHT22;9244;50.828;4.718;2024-02-04T14:31:53;10.90;99.90
18240;DHT22;9244;50.828;4.718;2024-02-04T14:34:23;10.90;99.90
18240;DHT22;9244;50.828;4.718;2024-02-04T14:36:50;10.90;99.90
18240;DHT22;9244;50.828;4.718;2024-02-04T14:39:18;10.90;99.90
18240;DHT22;9244;50.828;4.718;2024-02-04T14:41:44;10.90;99.90
18240;DHT22;9244;50.828;4.718;2024-02-04T14:44:09;10.80;99.90
18240;DHT22;9244;50.828;4.718;2024-02-04T14:46:38;10.80;99.90
18240;DHT22;9244;50.828;4.718;2024-02-04T14:49:07;10.80;99.90
18240;DHT22;9244;50.828;4.718;2024-02-04T14:51:37;10.80;99.90
18240;DHT22;9244;50.828;4.718;2024-02-04T14:54:04;10.80;99.90
18240;DHT22;9244;50.828;4.718;2024-02-04T14:56:30;10.80;99.90
18240;DHT22;9244;50.828;4.718;2024-02-04T14:58:58;10.80;99.90
18240;DHT22;9244;50.828;4.718;2024-02-04T15:01:24;10.70;99.90
18240;DHT22;9244;50.828;4.718;2024-02-04T15:03:49;10.70;99.90
18240;DHT22;9244;50.828;4.718;2024-02-04T15:06:15;10.80;99.90
18240;DHT22;9244;50.828;4.718;2024-02-04T15:08:44;10.80;99.90
18240;DHT22;9244;50.828;4.718;2024-02-04T15:11:10;10.80;99.90
18240;DHT22;9244;50.828;4.718;2024-02-04T15:13:36;10.80;99.90
18240;DHT22;9244;50.828;4.718;2024-02-04T15:16:02;10.80;99.90
18240;DHT22;9244;50.828;4.718;2024-02-04T15:18:29;10.80;99.90
18240;DHT22;9244;50.828;4.718;2024-02-04T15:20:56;10.80;99.90
18240;DHT22;9244;50.828;4.718;2024-02-04T15:23:22;10.80;99.90
18240;DHT22;9244;50.828;4.718;2024-02-04T15:25:48;10.80;99.90
18240;DHT22;9244;50.828;4.718;2024-02-04T15:28:14;10.80;99.90
18240;DHT22;9244;50.828;4.718;2024-02-04T15:30:40;10.80;99.90
18240;DHT22;9244;50.828;4.718;2024-02-04T15:33:08;10.80;99.90
18240;DHT22;9244;50.828;4.718;2024-02-04T15:35:37;10.80;99.90
18240;DHT22;9244;50.828;4.718;2024-02-04T15:38:04;10.80;99.90
18240;DHT22;9244;50.828;4.718;2024-02-04T15:40:35;10.80;99.90
18240;DHT22;9244;50.828;4.718;2024-02-04T15:43:01;10.80;99.90
18240;DHT22;9244;50.828;4.718;2024-02-04T15:45:27;10.90;99.90
18240;DHT22;9244;50.828;4.718;2024-02-04T15:47:53;10.90;99.90
18240;DHT22;9244;50.828;4.718;2024-02-04T15:50:20;10.80;99.90
18240;DHT22;9244;50.828;4.718;2024-02-04T15:52:49;10.80;99.90